sensor_id;sensor_type;location;lat;lon;timestamp;pressure;altitude;pressure_sealevel;temperature;humidity
17438;BME280;73152;52.198;5.422;2023-11-21T00:00:17;100912.16;;;21.08;49.73
17438;BME280;73152;52.198;5.422;2023-11-21T00:02:46;100912.16;;;21.08;49.75
17438;BME280;73152;52.198;5.422;2023-11-21T00:05:18;100918.38;;;21.08;49.70
17438;BME280;73152;52.198;5.422;2023-11-21T00:07:49;100913.00;;;21.08;49.71
17438;BME280;73152;52.198;5.422;2023-11-21T00:10:18;100915.91;;;21.07;50.11
17438;BME280;73152;52.198;5.422;2023-11-21T00:12:47;100924.63;;;21.09;49.87
17438;BME280;73152;52.198;5.422;2023-11-21T00:15:16;100928.31;;;21.08;49.80
17438;BME280;73152;52.198;5.422;2023-11-21T00:17:44;100925.00;;;21.06;49.78
17438;BME280;73152;52.198;5.422;2023-11-21T00:20:13;100928.31;;;21.08;50.10
17438;BME280;73152;52.198;5.422;2023-11-21T00:22:45;100925.00;;;21.06;49.98
17438;BME280;73152;52.198;5.422;2023-11-21T00:25:13;100924.78;;;21.07;50.05
17438;BME280;73152;52.198;5.422;2023-11-21T00:27:43;100931.22;;;21.06;49.83
17438;BME280;73152;52.198;5.422;2023-11-21T00:30:14;100939.09;;;21.08;49.72
17438;BME280;73152;52.198;5.422;2023-11-21T00:32:43;100934.94;;;21.05;50.12
17438;BME280;73152;52.198;5.422;2023-11-21T00:35:11;100935.78;;;21.06;50.09
17438;BME280;73152;52.198;5.422;2023-11-21T00:37:44;100931.22;;;21.06;49.89
17438;BME280;73152;52.198;5.422;2023-11-21T00:40:16;100929.53;;;21.05;49.85
17438;BME280;73152;52.198;5.422;2023-11-21T00:42:47;100935.78;;;21.06;50.16
17438;BME280;73152;52.198;5.422;2023-11-21T00:45:16;100931.22;;;21.06;49.75
17438;BME280;73152;52.198;5.422;2023-11-21T00:47:45;100936.63;;;21.06;49.83
17438;BME280;73152;52.198;5.422;2023-11-21T00:50:14;100940.16;;;21.07;49.84
17438;BME280;73152;52.198;5.422;2023-11-21T00:52:45;100938.47;;;21.06;50.06
17438;BME280;73152;52.198;5.422;2023-11-21T00:55:14;100939.88;;;21.02;49.78
17438;BME280;73152;52.198;5.422;2023-11-21T00:57:44;100937.81;;;21.04;49.85
17438;BME280;73152;52.198;5.422;2023-11-21T01:00:14;100946.56;;;21.06;49.75
17438;BME280;73152;52.198;5.422;2023-11-21T01:02:44;100948.41;;;21.05;49.92
17438;BME280;73152;52.198;5.422;2023-11-21T01:05:13;100959.19;;;21.05;49.73
17438;BME280;73152;52.198;5.422;2023-11-21T01:07:45;100956.50;;;21.05;49.97
17438;BME280;73152;52.198;5.422;2023-11-21T01:10:14;100957.34;;;21.06;49.71
17438;BME280;73152;52.198;5.422;2023-11-21T01:12:43;100961.88;;;21.05;49.74
17438;BME280;73152;52.198;5.422;2023-11-21T01:15:12;100971.84;;;21.05;49.70
17438;BME280;73152;52.198;5.422;2023-11-21T01:17:41;100968.13;;;21.06;49.70
17438;BME280;73152;52.198;5.422;2023-11-21T01:20:11;100971.00;;;21.04;49.75
17438;BME280;73152;52.198;5.422;2023-11-21T01:22:40;100971.84;;;21.05;49.92
17438;BME280;73152;52.198;5.422;2023-11-21T01:25:11;100964.75;;;21.04;49.90
17438;BME280;73152;52.198;5.422;2023-11-21T01:27:41;100970.13;;;21.04;49.83
17438;BME280;73152;52.198;5.422;2023-11-21T01:30:11;100967.44;;;21.04;49.84
17438;BME280;73152;52.198;5.422;2023-11-21T01:32:40;100960.22;;;21.04;50.06
17438;BME280;73152;52.198;5.422;2023-11-21T01:35:09;100977.25;;;21.05;49.66
17438;BME280;73152;52.198;5.422;2023-11-21T01:37:38;100973.84;;;21.03;50.10
17438;BME280;73152;52.198;5.422;2023-11-21T01:40:12;100968.47;;;21.03;49.84
17438;BME280;73152;52.198;5.422;2023-11-21T01:42:40;100977.25;;;21.05;49.91
17438;BME280;73152;52.198;5.422;2023-11-21T01:45:10;100964.13;;;21.02;49.89
17438;BME280;73152;52.198;5.422;2023-11-21T01:47:39;100978.22;;;21.04;49.83
17438;BME280;73152;52.198;5.422;2023-11-21T01:50:16;100983.59;;;21.04;49.79
17438;BME280;73152;52.198;5.422;2023-11-21T01:52:48;100980.91;;;21.04;49.75
17438;BME280;73152;52.198;5.422;2023-11-21T01:55:20;100991.69;;;21.04;49.80
17438;BME280;73152;52.198;5.422;2023-11-21T01:57:49;100986.69;;;21.01;49.76
17438;BME280;73152;52.198;5.422;2023-11-21T02:00:18;100988.03;;;21.05;50.05
17438;BME280;73152;52.198;5.422;2023-11-21T02:02:48;100993.41;;;21.05;49.79
17438;BME280;73152;52.198;5.422;2023-11-21T02:05:19;100997.75;;;21.06;49.87
17438;BME280;73152;52.198;5.422;2023-11-21T02:07:48;100994.38;;;21.04;49.82
17438;BME280;73152;52.198;5.422;2023-11-21T02:10:20;101007.03;;;21.03;49.71
17438;BME280;73152;52.198;5.422;2023-11-21T02:12:50;101012.28;;;21.05;49.86
17438;BME280;73152;52.198;5.422;2023-11-21T02:15:18;101007.88;;;21.04;49.79
17438;BME280;73152;52.198;5.422;2023-11-21T02:17:52;101014.13;;;21.04;50.05
17438;BME280;73152;52.198;5.422;2023-11-21T02:20:22;101019.50;;;21.04;49.73
17438;BME280;73152;52.198;5.422;2023-11-21T02:22:56;101016.81;;;21.04;49.99
17438;BME280;73152;52.198;5.422;2023-11-21T02:25:28;101013.25;;;21.04;49.90
17438;BME280;73152;52.198;5.422;2023-11-21T02:27:59;101024.91;;;21.04;49.80
17438;BME280;73152;52.198;5.422;2023-11-21T02:30:28;101024.03;;;21.04;49.74
17438;BME280;73152;52.198;5.422;2023-11-21T02:32:57;101034.81;;;21.04;49.68
17438;BME280;73152;52.198;5.422;2023-11-21T02:35:27;101029.41;;;21.04;50.00
17438;BME280;73152;52.198;5.422;2023-11-21T02:37:59;101030.28;;;21.04;49.70
17438;BME280;73152;52.198;5.422;2023-11-21T02:40:28;101031.13;;;21.05;50.00
17438;BME280;73152;52.198;5.422;2023-11-21T02:42:57;101029.06;;;21.07;49.68
17438;BME280;73152;52.198;5.422;2023-11-21T02:45:26;101025.75;;;21.05;49.93
17438;BME280;73152;52.198;5.422;2023-11-21T02:47:55;101031.13;;;21.05;49.97
17438;BME280;73152;52.198;5.422;2023-11-21T02:50:24;101026.38;;;21.07;49.75
17438;BME280;73152;52.198;5.422;2023-11-21T02:52:53;101020.34;;;21.05;49.88
17438;BME280;73152;52.198;5.422;2023-11-21T02:55:26;101029.25;;;21.05;49.74
17438;BME280;73152;52.198;5.422;2023-11-21T02:57:55;101031.13;;;21.05;49.97
17438;BME280;73152;52.198;5.422;2023-11-21T03:00:25;101031.13;;;21.05;49.60
17438;BME280;73152;52.198;5.422;2023-11-21T03:02:56;101031.13;;;21.05;49.89
17438;BME280;73152;52.198;5.422;2023-11-21T03:05:25;101030.94;;;21.06;49.80
17438;BME280;73152;52.198;5.422;2023-11-21T03:07:55;101027.41;;;21.06;49.54
17438;BME280;73152;52.198;5.422;2023-11-21T03:10:26;101024.91;;;21.04;49.81
17438;BME280;73152;52.198;5.422;2023-11-21T03:12:55;101031.13;;;21.05;49.61
17438;BME280;73152;52.198;5.422;2023-11-21T03:15:24;101025.75;;;21.05;49.93
17438;BME280;73152;52.198;5.422;2023-11-21T03:17:53;101019.31;;;21.06;49.86
17438;BME280;73152;52.198;5.422;2023-11-21T03:20:22;101021.16;;;21.05;49.64
17438;BME280;73152;52.198;5.422;2023-11-21T03:22:51;101024.69;;;21.06;49.73
17438;BME280;73152;52.198;5.422;2023-11-21T03:25:20;101021.16;;;21.05;49.53
17438;BME280;73152;52.198;5.422;2023-11-21T03:27:52;101023.06;;;21.05;49.81
17438;BME280;73152;52.198;5.422;2023-11-21T03:30:21;101022.22;;;21.04;49.89
17438;BME280;73152;52.198;5.422;2023-11-21T03:32:50;101027.41;;;21.06;49.54
17438;BME280;73152;52.198;5.422;2023-11-21T03:35:19;101030.09;;;21.06;49.90
17438;BME280;73152;52.198;5.422;2023-11-21T03:37:49;101029.41;;;21.04;49.92
17438;BME280;73152;52.198;5.422;2023-11-21T03:40:17;101039.34;;;21.03;49.64
17438;BME280;73152;52.198;5.422;2023-11-21T03:42:47;101044.41;;;21.06;49.74
17438;BME280;73152;52.198;5.422;2023-11-21T03:45:21;101046.47;;;21.04;49.47
17438;BME280;73152;52.198;5.422;2023-11-21T03:47:50;101048.13;;;21.05;49.81
17438;BME280;73152;52.198;5.422;2023-11-21T03:50:19;101050.97;;;21.04;49.59
17438;BME280;73152;52.198;5.422;2023-11-21T03:52:48;101059.06;;;21.04;49.84
17438;BME280;73152;52.198;5.422;2023-11-21T03:55:16;101061.75;;;21.04;49.50
17438;BME280;73152;52.198;5.422;2023-11-21T03:57:45;101060.78;;;21.05;49.82
17438;BME280;73152;52.198;5.422;2023-11-21T04:00:15;101068.88;;;21.05;49.78
17438;BME280;73152;52.198;5.422;2023-11-21T04:02:48;101071.69;;;21.03;49.92
17438;BME280;73152;52.198;5.422;2023-11-21T04:05:17;101069.00;;;21.03;49.79
17438;BME280;73152;52.198;5.422;2023-11-21T04:07:46;101063.59;;;21.03;49.79
17438;BME280;73152;52.198;5.422;2023-11-21T04:10:15;101073.53;;;21.03;49.51
17438;BME280;73152;52.198;5.422;2023-11-21T04:12:44;101077.94;;;21.04;49.87
17438;BME280;73152;52.198;5.422;2023-11-21T04:15:14;101080.63;;;21.04;49.76
17438;BME280;73152;52.198;5.422;2023-11-21T04:17:43;101083.31;;;21.04;49.78
17438;BME280;73152;52.198;5.422;2023-11-21T04:20:14;101088.72;;;21.04;49.52
17438;BME280;73152;52.198;5.422;2023-11-21T04:22:44;101089.72;;;21.03;49.90
17438;BME280;73152;52.198;5.422;2023-11-21T04:25:15;101100.34;;;21.04;49.55
17438;BME280;73152;52.198;5.422;2023-11-21T04:27:45;101096.78;;;21.04;49.66
17438;BME280;73152;52.198;5.422;2023-11-21T04:30:14;101102.56;;;21.01;49.82
17438;BME280;73152;52.198;5.422;2023-11-21T04:32:43;101098.66;;;21.03;49.56
17438;BME280;73152;52.198;5.422;2023-11-21T04:35:15;101098.84;;;21.02;49.78
17438;BME280;73152;52.198;5.422;2023-11-21T04:37:44;101087.81;;;20.97;49.58
17438;BME280;73152;52.198;5.422;2023-11-21T04:40:13;101106.72;;;21.03;49.62
17438;BME280;73152;52.198;5.422;2023-11-21T04:42:42;101112.13;;;21.03;49.64
17438;BME280;73152;52.198;5.422;2023-11-21T04:45:11;101116.53;;;21.04;49.87
17438;BME280;73152;52.198;5.422;2023-11-21T04:47:40;101122.06;;;21.03;49.87
17438;BME280;73152;52.198;5.422;2023-11-21T04:50:10;101124.75;;;21.03;49.65
17438;BME280;73152;52.198;5.422;2023-11-21T04:52:41;101122.06;;;21.03;49.55
17438;BME280;73152;52.198;5.422;2023-11-21T04:55:10;101117.72;;;21.02;49.53
17438;BME280;73152;52.198;5.422;2023-11-21T04:57:39;101110.63;;;21.01;49.47
17438;BME280;73152;52.198;5.422;2023-11-21T05:00:11;101114.16;;;21.01;49.48
17438;BME280;73152;52.198;5.422;2023-11-21T05:02:40;101116.03;;;21.01;49.52
17438;BME280;73152;52.198;5.422;2023-11-21T05:05:10;101120.19;;;21.03;49.79
17438;BME280;73152;52.198;5.422;2023-11-21T05:07:41;101130.13;;;21.03;49.61
17438;BME280;73152;52.198;5.422;2023-11-21T05:10:10;101138.22;;;21.03;49.44
17438;BME280;73152;52.198;5.422;2023-11-21T05:12:41;101136.38;;;21.03;49.81
17438;BME280;73152;52.198;5.422;2023-11-21T05:15:14;101130.13;;;21.03;49.79
17438;BME280;73152;52.198;5.422;2023-11-21T05:17:44;101139.44;;;21.00;49.75
17438;BME280;73152;52.198;5.422;2023-11-21T05:20:16;101141.31;;;21.00;49.81
17438;BME280;73152;52.198;5.422;2023-11-21T05:22:50;101148.34;;;21.01;49.84
17438;BME280;73152;52.198;5.422;2023-11-21T05:25:19;101143.81;;;21.01;49.71
17438;BME280;73152;52.198;5.422;2023-11-21T05:27:48;101151.06;;;21.01;49.64
17438;BME280;73152;52.198;5.422;2023-11-21T05:30:16;101153.75;;;21.01;49.87
17438;BME280;73152;52.198;5.422;2023-11-21T05:32:45;101154.78;;;21.00;49.57
17438;BME280;73152;52.198;5.422;2023-11-21T05:35:15;101163.50;;;21.02;49.59
17438;BME280;73152;52.198;5.422;2023-11-21T05:37:45;101162.69;;;21.01;49.85
17438;BME280;73152;52.198;5.422;2023-11-21T05:40:17;101169.53;;;21.04;49.86
17438;BME280;73152;52.198;5.422;2023-11-21T05:42:48;101159.13;;;21.01;49.72
17438;BME280;73152;52.198;5.422;2023-11-21T05:45:17;101171.59;;;21.02;49.82
17438;BME280;73152;52.198;5.422;2023-11-21T05:47:47;101173.66;;;21.00;49.90
17438;BME280;73152;52.198;5.422;2023-11-21T05:50:17;101168.06;;;21.01;49.74
17438;BME280;73152;52.198;5.422;2023-11-21T05:52:47;101174.47;;;21.00;49.74
17438;BME280;73152;52.198;5.422;2023-11-21T05:55:18;101180.69;;;21.01;49.83
17438;BME280;73152;52.198;5.422;2023-11-21T05:57:50;101180.69;;;21.01;49.57
17438;BME280;73152;52.198;5.422;2023-11-21T06:00:19;101186.09;;;21.01;49.47
17438;BME280;73152;52.198;5.422;2023-11-21T06:02:49;101189.81;;;21.00;49.44
17438;BME280;73152;52.198;5.422;2023-11-21T06:05:19;101190.63;;;21.00;49.78
17438;BME280;73152;52.198;5.422;2023-11-21T06:07:49;101194.38;;;20.99;49.65
17438;BME280;73152;52.198;5.422;2023-11-21T06:10:21;101195.94;;;20.94;49.76
17438;BME280;73152;52.198;5.422;2023-11-21T06:12:50;101199.97;;;20.98;49.69
17438;BME280;73152;52.198;5.422;2023-11-21T06:15:19;101207.84;;;20.99;49.47
17438;BME280;73152;52.198;5.422;2023-11-21T06:17:49;101202.66;;;20.98;49.74
17438;BME280;73152;52.198;5.422;2023-11-21T06:20:19;101213.44;;;20.98;49.42
17438;BME280;73152;52.198;5.422;2023-11-21T06:22:50;101215.28;;;20.97;49.88
17438;BME280;73152;52.198;5.422;2023-11-21T06:25:22;101218.13;;;20.96;49.55
17438;BME280;73152;52.198;5.422;2023-11-21T06:27:51;101224.22;;;20.98;49.77
17438;BME280;73152;52.198;5.422;2023-11-21T06:30:20;101220.47;;;20.99;49.46
17438;BME280;73152;52.198;5.422;2023-11-21T06:32:49;101227.72;;;20.98;49.74
17438;BME280;73152;52.198;5.422;2023-11-21T06:35:18;101220.47;;;20.99;49.45
17438;BME280;73152;52.198;5.422;2023-11-21T06:37:47;101233.94;;;20.99;49.58
17438;BME280;73152;52.198;5.422;2023-11-21T06:40:17;101240.38;;;20.98;49.52
17438;BME280;73152;52.198;5.422;2023-11-21T06:42:50;101236.84;;;20.97;49.57
17438;BME280;73152;52.198;5.422;2023-11-21T06:45:19;101239.53;;;20.97;49.84
17438;BME280;73152;52.198;5.422;2023-11-21T06:47:48;101247.78;;;20.96;49.54
17438;BME280;73152;52.198;5.422;2023-11-21T06:50:18;101238.69;;;20.97;49.80
17438;BME280;73152;52.198;5.422;2023-11-21T06:52:47;101243.22;;;20.96;49.47
17438;BME280;73152;52.198;5.422;2023-11-21T06:55:16;101241.38;;;20.97;49.46
17438;BME280;73152;52.198;5.422;2023-11-21T06:57:44;101253.16;;;20.96;49.77
17438;BME280;73152;52.198;5.422;2023-11-21T07:00:17;101256.91;;;20.95;49.70
17438;BME280;73152;52.198;5.422;2023-11-21T07:02:46;101265.16;;;20.93;49.51
17438;BME280;73152;52.198;5.422;2023-11-21T07:05:15;101272.44;;;20.93;49.42
17438;BME280;73152;52.198;5.422;2023-11-21T07:07:46;101273.44;;;20.92;49.42
17438;BME280;73152;52.198;5.422;2023-11-21T07:10:15;101277.16;;;20.91;49.48
17438;BME280;73152;52.198;5.422;2023-11-21T07:12:44;101277.16;;;20.91;49.79
17438;BME280;73152;52.198;5.422;2023-11-21T07:15:16;101277.53;;;20.88;49.70
17438;BME280;73152;52.198;5.422;2023-11-21T07:17:45;101283.28;;;20.85;49.77
17438;BME280;73152;52.198;5.422;2023-11-21T07:20:14;101288.66;;;20.85;49.35
17438;BME280;73152;52.198;5.422;2023-11-21T07:22:43;101299.44;;;20.85;49.73
17438;BME280;73152;52.198;5.422;2023-11-21T07:25:12;101299.81;;;20.82;49.34
17438;BME280;73152;52.198;5.422;2023-11-21T07:27:41;101301.03;;;20.79;49.81
17438;BME280;73152;52.198;5.422;2023-11-21T07:30:12;101301.03;;;20.79;49.75
17438;BME280;73152;52.198;5.422;2023-11-21T07:32:44;101298.50;;;20.77;49.82
17438;BME280;73152;52.198;5.422;2023-11-21T07:35:13;101301.84;;;20.79;49.43
17438;BME280;73152;52.198;5.422;2023-11-21T07:37:42;101302.69;;;20.80;49.48
17438;BME280;73152;52.198;5.422;2023-11-21T07:40:13;101305.19;;;20.82;49.62
17438;BME280;73152;52.198;5.422;2023-11-21T07:42:42;101311.63;;;20.81;49.63
17438;BME280;73152;52.198;5.422;2023-11-21T07:45:12;101310.56;;;20.82;49.60
17438;BME280;73152;52.198;5.422;2023-11-21T07:47:43;101316.66;;;20.84;49.48
17438;BME280;73152;52.198;5.422;2023-11-21T07:50:12;101321.19;;;20.83;49.78
17438;BME280;73152;52.198;5.422;2023-11-21T07:52:41;101326.38;;;20.85;49.54
17438;BME280;73152;52.198;5.422;2023-11-21T07:55:10;101324.72;;;20.84;49.80
17438;BME280;73152;52.198;5.422;2023-11-21T07:57:39;101334.75;;;20.90;49.54
17438;BME280;73152;52.198;5.422;2023-11-21T08:00:10;101337.25;;;20.91;49.67
17438;BME280;73152;52.198;5.422;2023-11-21T08:02:43;101341.44;;;20.94;49.57
17438;BME280;73152;52.198;5.422;2023-11-21T08:05:12;101346.81;;;20.94;49.67
17438;BME280;73152;52.198;5.422;2023-11-21T08:07:41;101353.25;;;20.93;49.49
17438;BME280;73152;52.198;5.422;2023-11-21T08:10:10;101358.44;;;20.94;49.65
17438;BME280;73152;52.198;5.422;2023-11-21T08:12:39;101357.44;;;20.95;49.60
17438;BME280;73152;52.198;5.422;2023-11-21T08:15:09;101381.69;;;20.95;49.48
17438;BME280;73152;52.198;5.422;2023-11-21T08:17:38;101382.50;;;20.96;49.58
17438;BME280;73152;52.198;5.422;2023-11-21T08:20:11;101389.59;;;20.97;49.43
17438;BME280;73152;52.198;5.422;2023-11-21T08:22:42;101392.28;;;20.97;49.58
17438;BME280;73152;52.198;5.422;2023-11-21T08:25:11;101395.63;;;20.99;49.38
17438;BME280;73152;52.198;5.422;2023-11-21T08:27:40;101398.31;;;20.99;49.18
17438;BME280;73152;52.198;5.422;2023-11-21T08:30:11;101408.25;;;20.98;49.54
17438;BME280;73152;52.198;5.422;2023-11-21T08:32:42;101417.00;;;21.00;49.37
17438;BME280;73152;52.198;5.422;2023-11-21T08:35:14;101419.69;;;21.00;49.57
17438;BME280;73152;52.198;5.422;2023-11-21T08:37:42;101427.75;;;21.00;49.38
17438;BME280;73152;52.198;5.422;2023-11-21T08:40:12;101421.56;;;21.00;49.45
17438;BME280;73152;52.198;5.422;2023-11-21T08:42:42;101419.56;;;20.94;49.14
17438;BME280;73152;52.198;5.422;2023-11-21T08:45:12;101430.66;;;20.99;49.56
17438;BME280;73152;52.198;5.422;2023-11-21T08:47:43;101429.66;;;21.00;49.36
17438;BME280;73152;52.198;5.422;2023-11-21T08:50:15;101429.97;;;21.05;49.25
17438;BME280;73152;52.198;5.422;2023-11-21T08:52:46;101431.44;;;21.07;49.48
17438;BME280;73152;52.198;5.422;2023-11-21T08:55:15;101427.94;;;21.07;49.03
17438;BME280;73152;52.198;5.422;2023-11-21T08:57:46;101438.31;;;21.10;49.37
17438;BME280;73152;52.198;5.422;2023-11-21T09:00:16;101450.59;;;21.12;49.30
17438;BME280;73152;52.198;5.422;2023-11-21T09:02:45;101444.19;;;21.13;49.25
17438;BME280;73152;52.198;5.422;2023-11-21T09:05:17;101458.69;;;21.12;49.29
17438;BME280;73152;52.198;5.422;2023-11-21T09:07:46;101468.63;;;21.12;49.16
17438;BME280;73152;52.198;5.422;2023-11-21T09:10:15;101469.66;;;21.11;49.12
17438;BME280;73152;52.198;5.422;2023-11-21T09:12:45;101472.34;;;21.11;49.30
17438;BME280;73152;52.198;5.422;2023-11-21T09:15:14;101469.66;;;21.11;49.24
17438;BME280;73152;52.198;5.422;2023-11-21T09:17:42;101488.53;;;21.11;49.28
17438;BME280;73152;52.198;5.422;2023-11-21T09:20:12;101487.88;;;21.09;49.26
17438;BME280;73152;52.198;5.422;2023-11-21T09:22:43;101495.13;;;21.08;49.07
17438;BME280;73152;52.198;5.422;2023-11-21T09:25:13;101498.66;;;21.09;49.22
17438;BME280;73152;52.198;5.422;2023-11-21T09:27:41;101511.09;;;21.10;48.98
17438;BME280;73152;52.198;5.422;2023-11-21T09:30:12;101510.09;;;21.11;49.29
17438;BME280;73152;52.198;5.422;2023-11-21T09:32:41;101507.59;;;21.09;49.31
17438;BME280;73152;52.198;5.422;2023-11-21T09:35:11;101513.78;;;21.10;49.28
17438;BME280;73152;52.198;5.422;2023-11-21T09:37:43;101514.81;;;21.09;49.10
17438;BME280;73152;52.198;5.422;2023-11-21T09:40:12;101515.84;;;21.08;49.07
17438;BME280;73152;52.198;5.422;2023-11-21T09:42:52;101522.91;;;21.09;48.99
17438;BME280;73152;52.198;5.422;2023-11-21T09:45:26;101529.97;;;21.10;48.93
17438;BME280;73152;52.198;5.422;2023-11-21T09:47:57;101531.00;;;21.09;48.99
17438;BME280;73152;52.198;5.422;2023-11-21T09:50:27;101546.31;;;21.08;48.88
17438;BME280;73152;52.198;5.422;2023-11-21T09:53:11;101540.09;;;21.08;49.23
17438;BME280;73152;52.198;5.422;2023-11-21T09:55:44;101546.50;;;21.07;49.21
17438;BME280;73152;52.198;5.422;2023-11-21T09:58:14;101556.09;;;21.09;48.89
17438;BME280;73152;52.198;5.422;2023-11-21T10:00:46;101559.59;;;21.10;49.14
17438;BME280;73152;52.198;5.422;2023-11-21T10:03:15;101557.94;;;21.09;49.05
17438;BME280;73152;52.198;5.422;2023-11-21T10:05:45;101556.25;;;21.08;48.81
17438;BME280;73152;52.198;5.422;2023-11-21T10:08:17;101554.41;;;21.08;49.10
17438;BME280;73152;52.198;5.422;2023-11-21T10:10:53;101558.59;;;21.11;48.86
17438;BME280;73152;52.198;5.422;2023-11-21T10:13:22;101557.75;;;21.10;48.87
17438;BME280;73152;52.198;5.422;2023-11-21T10:15:51;101562.97;;;21.12;49.08
17438;BME280;73152;52.198;5.422;2023-11-21T10:18:20;101564.19;;;21.09;49.00
17438;BME280;73152;52.198;5.422;2023-11-21T10:20:54;101581.19;;;21.10;49.06
17438;BME280;73152;52.198;5.422;2023-11-21T10:23:26;101601.72;;;21.11;48.96
17438;BME280;73152;52.198;5.422;2023-11-21T10:25:56;101600.69;;;21.12;48.81
17438;BME280;73152;52.198;5.422;2023-11-21T10:28:26;101606.28;;;21.10;48.86
17438;BME280;73152;52.198;5.422;2023-11-21T10:30:55;101607.97;;;21.11;48.72
17438;BME280;73152;52.198;5.422;2023-11-21T10:33:28;101603.38;;;21.12;48.98
17438;BME280;73152;52.198;5.422;2023-11-21T10:35:58;101618.91;;;21.10;49.11
17438;BME280;73152;52.198;5.422;2023-11-21T10:38:42;101617.91;;;21.11;48.81
17438;BME280;73152;52.198;5.422;2023-11-21T10:41:13;101627.84;;;21.10;48.78
17438;BME280;73152;52.198;5.422;2023-11-21T10:43:43;101633.41;;;21.09;48.97
17438;BME280;73152;52.198;5.422;2023-11-21T10:46:13;101641.50;;;21.09;49.13
17438;BME280;73152;52.198;5.422;2023-11-21T10:48:42;101640.47;;;21.10;48.81
17438;BME280;73152;52.198;5.422;2023-11-21T10:51:12;101642.34;;;21.09;48.85
17438;BME280;73152;52.198;5.422;2023-11-21T10:53:44;101653.94;;;21.10;49.06
17438;BME280;73152;52.198;5.422;2023-11-21T10:56:14;101651.25;;;21.10;48.87
17438;BME280;73152;52.198;5.422;2023-11-21T10:58:49;101656.00;;;21.08;48.81
17438;BME280;73152;52.198;5.422;2023-11-21T11:01:19;101659.72;;;21.07;49.16
17438;BME280;73152;52.198;5.422;2023-11-21T11:03:52;101661.56;;;21.06;49.04
17438;BME280;73152;52.198;5.422;2023-11-21T11:06:26;101665.09;;;21.07;49.02
17438;BME280;73152;52.198;5.422;2023-11-21T11:09:01;101663.41;;;21.06;49.10
17438;BME280;73152;52.198;5.422;2023-11-21T11:11:31;101666.78;;;21.08;48.73
17438;BME280;73152;52.198;5.422;2023-11-21T11:14:00;101658.03;;;21.06;49.10
17438;BME280;73152;52.198;5.422;2023-11-21T11:16:29;101658.69;;;21.08;49.06
17438;BME280;73152;52.198;5.422;2023-11-21T11:18:59;101662.56;;;21.05;48.89
17438;BME280;73152;52.198;5.422;2023-11-21T11:21:46;101666.97;;;21.06;48.95
17438;BME280;73152;52.198;5.422;2023-11-21T11:24:48;101670.66;;;21.05;48.94
17438;BME280;73152;52.198;5.422;2023-11-21T11:27:37;101669.84;;;21.05;48.85
17438;BME280;73152;52.198;5.422;2023-11-21T11:30:39;101677.75;;;21.06;48.85
17438;BME280;73152;52.198;5.422;2023-11-21T11:33:23;101672.34;;;21.06;48.74
17438;BME280;73152;52.198;5.422;2023-11-21T11:36:02;101679.41;;;21.07;49.06
17438;BME280;73152;52.198;5.422;2023-11-21T11:38:35;101677.22;;;21.11;49.00
17438;BME280;73152;52.198;5.422;2023-11-21T11:41:07;101674.00;;;21.07;48.96
17438;BME280;73152;52.198;5.422;2023-11-21T11:43:36;101679.25;;;21.09;48.53
17438;BME280;73152;52.198;5.422;2023-11-21T11:46:12;101686.66;;;21.07;48.84
17438;BME280;73152;52.198;5.422;2023-11-21T11:48:42;101690.03;;;21.09;48.94
17438;BME280;73152;52.198;5.422;2023-11-21T11:51:13;101675.88;;;20.99;48.72
17438;BME280;73152;52.198;5.422;2023-11-21T11:53:45;101694.38;;;21.10;48.89
17438;BME280;73152;52.198;5.422;2023-11-21T11:56:27;101697.25;;;21.08;48.69
17438;BME280;73152;52.198;5.422;2023-11-21T11:58:59;101705.53;;;21.07;48.59
17438;BME280;73152;52.198;5.422;2023-11-21T12:01:30;101710.25;;;21.05;48.43
17438;BME280;73152;52.198;5.422;2023-11-21T12:04:25;101710.25;;;21.05;48.94
17438;BME280;73152;52.198;5.422;2023-11-21T12:07:01;101721.72;;;21.07;48.90
17438;BME280;73152;52.198;5.422;2023-11-21T12:09:33;101720.69;;;21.08;48.95
17438;BME280;73152;52.198;5.422;2023-11-21T12:12:06;101719.81;;;21.07;48.65
17438;BME280;73152;52.198;5.422;2023-11-21T12:14:37;101719.81;;;21.07;48.84
17438;BME280;73152;52.198;5.422;2023-11-21T12:17:06;101724.41;;;21.07;48.66
17438;BME280;73152;52.198;5.422;2023-11-21T12:19:35;101719.50;;;21.10;48.77
17438;BME280;73152;52.198;5.422;2023-11-21T12:22:04;101723.03;;;21.11;48.41
17438;BME280;73152;52.198;5.422;2023-11-21T12:24:34;101719.28;;;21.12;48.46
17438;BME280;73152;52.198;5.422;2023-11-21T12:27:05;101729.41;;;21.10;48.82
17438;BME280;73152;52.198;5.422;2023-11-21T12:29:34;101725.72;;;21.11;48.61
17438;BME280;73152;52.198;5.422;2023-11-21T12:32:04;101722.84;;;21.12;48.54
17438;BME280;73152;52.198;5.422;2023-11-21T12:34:33;101726.88;;;21.16;48.25
17438;BME280;73152;52.198;5.422;2023-11-21T12:37:02;101729.38;;;21.18;48.24
17438;BME280;73152;52.198;5.422;2023-11-21T12:39:31;101733.94;;;21.17;48.51
17438;BME280;73152;52.198;5.422;2023-11-21T12:42:00;101740.38;;;21.16;48.49
17438;BME280;73152;52.198;5.422;2023-11-21T12:44:35;101735.97;;;21.15;48.48
17438;BME280;73152;52.198;5.422;2023-11-21T12:47:07;101739.31;;;21.17;48.40
17438;BME280;73152;52.198;5.422;2023-11-21T12:49:39;101737.81;;;21.15;48.63
17438;BME280;73152;52.198;5.422;2023-11-21T12:52:10;101741.19;;;21.17;48.54
17438;BME280;73152;52.198;5.422;2023-11-21T12:54:39;101752.34;;;21.14;48.60
17438;BME280;73152;52.198;5.422;2023-11-21T12:57:08;101746.41;;;21.18;48.19
17438;BME280;73152;52.198;5.422;2023-11-21T12:59:41;101749.78;;;21.20;48.21
17438;BME280;73152;52.198;5.422;2023-11-21T13:02:13;101757.34;;;21.17;48.61
17438;BME280;73152;52.198;5.422;2023-11-21T13:04:41;101743.94;;;21.09;48.38
17438;BME280;73152;52.198;5.422;2023-11-21T13:07:15;101765.28;;;21.18;48.38